• Join FlightAware (Why Join?)
  • Login
  • US Flag 
05:33AM EDT


 

Airport Tracker/Info


-or-


 

Live Flight TrackerFlight Track Log ✈ ACA831 ✈ 12-Aug-2013 ✈ CYUL - CYYZ

Flight Track Log - Related Links

Times and Time Zones

All times are in EDT time to prevent confusion due to time zone crossing. See the ACA831 flight status page for this flight to view local times or setup timezone preferences in your user account.

Time Position Orientation Groundspeed Altitude Reporting Facility
EDT Latitude Longitude Course Direction KTS MPH feet Rate Location/Type
04:15PM 45.4720 -73.7220 199° South 115 132  Level FlightAware
04:15PM 45.4600 -73.7380 223° Southwest 153 176 700 3,000 Climbing FlightAware
04:15PM 45.4480 -73.7530 221° Southwest 152 175 2,100 3,120 Climbing FlightAware
04:16PM 45.4350 -73.7690 221° Southwest 192 221 2,800 1,920 Climbing FlightAware
04:16PM 45.4200 -73.7870 220° Southwest 231 266 3,400 2,880 Climbing FlightAware
04:16PM 45.4000 -73.8140 223° Southwest 240 276 5,000 3,420 Climbing FlightAware
04:17PM 45.3950 -73.8270 241° Southwest 249 287 5,400 3,360 Climbing FlightAware
04:17PM 45.3900 -73.8530 255° West 263 303 6,400 4,620 Climbing FlightAware
04:17PM 45.3910 -73.8960 272° West 254 292 8,500 4,620 Climbing FlightAware
04:17PM 45.3920 -73.9220 273° West 261 300 9,500 3,360 Climbing FlightAware
04:18PM 45.3950 -73.9850 274° West 296 341 11,300 3,660 Climbing FlightAware
04:19PM 45.3990 -74.0550 275° West 300 345 13,800 4,200 Climbing FlightAware
04:19PM 45.4020 -74.1240 274° West 302 348 16,200 2,940 Climbing FlightAware
04:20PM 45.4060 -74.1990 274° West 346 398 17,300 2,160 Climbing FlightAware
04:20PM 45.4100 -74.2830 274° West 369 425 18,800 3,000 Climbing FlightAware
04:21PM 45.4140 -74.3690 274° West 378 435 20,800 3,120 Climbing FlightAware
04:22PM 45.4120 -74.4560 268° West 386 444 22,500 2,880 Climbing FlightAware
04:22PM 45.3980 -74.5440 257° West 395 455 24,200 3,000 Climbing FlightAware
04:23PM 45.3830 -74.6330 257° West 397 457 26,000 2,880 Climbing FlightAware
04:23PM 45.3670 -74.7260 256° West 400 460 27,600 2,820 Climbing FlightAware
04:24PM 45.3490 -74.8310 256° West 394 453 29,700 3,060 Climbing FlightAware
04:25PM 45.3340 -74.9210 257° West 384 442 31,600 3,060 Climbing FlightAware
04:25PM 45.3190 -75.0060 256° West 367 422 33,400 2,040 Climbing FlightAware
04:26PM 45.3050 -75.0890 257° West 372 428 34,000 480 Climbing FlightAware
04:26PM 45.2900 -75.1750 256° West 374 430 34,000  Level FlightAware
04:27PM 45.2770 -75.2470 256° West 373 429 34,000  Level FlightAware
04:28PM 45.2610 -75.3410 256° West 370 426 34,000  Level FlightAware
04:28PM 45.2460 -75.4240 256° West 370 426 34,000  Level FlightAware
04:29PM 45.2330 -75.4970 256° West 370 426 34,000  Level FlightAware
04:29PM 45.2200 -75.5740 257° West 370 426 34,000  Level FlightAware
04:30PM 45.2020 -75.6740 256° West 371 427 34,000  Level FlightAware
04:30PM 45.1890 -75.7440 255° West 372 428 34,000  Level FlightAware
04:31PM 45.1740 -75.8270 256° West 373 429 34,000  Level FlightAware
04:32PM 45.1590 -75.9110 256° West 374 430 34,000  Level FlightAware
04:32PM 45.1420 -76.0070 256° West 373 429 34,000  Level FlightAware
04:33PM 45.1290 -76.0750 255° West 374 430 34,000  Level FlightAware
04:33PM 45.1140 -76.1590 256° West 377 434 34,000  Level FlightAware
04:34PM 45.0970 -76.2350 252° West 377 434 34,000  Level FlightAware
04:34PM 45.0760 -76.2940 243° Southwest 380 437 34,000  Level FlightAware
04:35PM 45.0310 -76.4070 241° Southwest 381 438 34,000  Level FlightAware
04:36PM 45.0040 -76.4760 241° Southwest 381 438 34,000  Level FlightAware
04:36PM 44.9740 -76.5510 241° Southwest 382 440 34,000  Level FlightAware
04:37PM 44.9380 -76.6420 241° Southwest 383 441 34,000  Level FlightAware
04:38PM 44.9130 -76.7050 241° Southwest 384 442 34,000  Level FlightAware
04:38PM 44.8850 -76.7740 240° Southwest 385 443 34,000  Level FlightAware
04:39PM 44.8470 -76.8700 241° Southwest 386 444 34,000  Level FlightAware
04:39PM 44.8230 -76.9280 240° Southwest 386 444 34,000  Level FlightAware
04:40PM 44.7920 -77.0040 240° Southwest 387 445 34,000  Level FlightAware
04:41PM 44.7550 -77.0980 241° Southwest 387 445 34,000 -180 Level FlightAware
04:41PM 44.7220 -77.1800 240° Southwest 385 443 33,800 -900 Descending FlightAware
04:42PM 44.6940 -77.2480 240° Southwest 390 449 33,000 -1,500 Descending FlightAware
04:42PM 44.6590 -77.3330 240° Southwest 392 451 32,100 -2,040 Descending FlightAware
04:43PM 44.6300 -77.4030 240° Southwest 388 447 30,800 -2,400 Descending FlightAware
04:43PM 44.6000 -77.4790 241° Southwest 378 435 29,400 -2,100 Descending FlightAware
04:44PM 44.5590 -77.5770 240° Southwest 365 420 27,900 -2,100 Descending FlightAware
04:45PM 44.5220 -77.6670 240° Southwest 368 423 26,200 -1,980 Descending FlightAware
04:46PM 44.4940 -77.7360 240° Southwest 364 419 25,300 -1,620 Descending FlightAware
04:46PM 44.4640 -77.8070 239° Southwest 361 415 24,300 -1,740 Descending FlightAware
04:47PM 44.4340 -77.8810 240° Southwest 357 411 23,300 -1,680 Descending FlightAware
04:47PM 44.4040 -77.9500 239° Southwest 355 409 22,400 -1,680 Descending FlightAware
04:48PM 44.3770 -78.0160 240° Southwest 356 410 21,400 -1,560 Descending FlightAware
04:48PM 44.3470 -78.0880 240° Southwest 351 404 20,600 -1,380 Descending FlightAware
04:49PM 44.3210 -78.1500 240° Southwest 349 402 19,800 -1,560 Descending FlightAware
04:50PM 44.2890 -78.2250 239° Southwest 347 399 18,800 -1,560 Descending FlightAware
04:50PM 44.2620 -78.2900 240° Southwest 345 397 18,000 -1,320 Descending FlightAware
04:51PM 44.2330 -78.3570 239° Southwest 343 395 17,300 -1,320 Descending FlightAware
04:51PM 44.2040 -78.4250 239° Southwest 341 392 16,500 -1,320 Descending FlightAware
04:52PM 44.1780 -78.4860 239° Southwest 339 390 15,800 -1,380 Descending FlightAware
04:53PM 44.1520 -78.5490 240° Southwest 334 384 14,900 -1,980 Descending FlightAware
04:53PM 44.1210 -78.6210 239° Southwest 334 384 13,500 -2,280 Descending FlightAware
04:54PM 44.0950 -78.6830 240° Southwest 332 382 12,300 -2,160 Descending FlightAware
04:54PM 44.0660 -78.7490 239° Southwest 327 376 11,000 -1,680 Descending FlightAware
04:55PM 44.0380 -78.8090 237° Southwest 312 359 10,400 -780 Descending FlightAware
04:55PM 44.0070 -78.8570 228° Southwest 284 327 10,100 -480 Descending FlightAware
04:56PM 43.9890 -78.8840 227° Southwest 268 308 10,000 -900 Descending FlightAware
04:56PM 43.9720 -78.9100 228° Southwest 266 306 9,500 -1,560 Descending FlightAware
04:56PM 43.9600 -78.9290 229° Southwest 267 307 9,100 -1,500 Descending FlightAware
04:57PM 43.9390 -78.9600 227° Southwest 266 306 8,500 -1,500 Descending FlightAware
04:57PM 43.9220 -78.9850 227° Southwest 263 303 8,000 -1,500 Descending FlightAware
04:57PM 43.9050 -79.0100 227° Southwest 256 295 7,500 -1,200 Descending FlightAware
04:58PM 43.8900 -79.0330 228° Southwest 244 281 7,200 -780 Descending FlightAware
04:58PM 43.8760 -79.0550 229° Southwest 225 259 7,000 -420 Descending FlightAware
04:58PM 43.8730 -79.0670 251° West 226 260 7,000  Level FlightAware
04:58PM 43.8710 -79.0760 253° West 228 262 7,000 -840 Level FlightAware
04:59PM 43.8700 -79.0960 266° West 230 265 6,700 -1,320 Descending FlightAware
04:59PM 43.8710 -79.1230 273° West 224 258 6,200 -1,680 Descending FlightAware
04:59PM 43.8680 -79.1700 265° West 223 257 5,400 -1,560 Descending FlightAware
05:00PM 43.8650 -79.1920 259° West 223 257 5,100 -1,200 Descending FlightAware
05:00PM 43.8610 -79.2210 259° West 222 255 4,700 -1,200 Descending FlightAware
05:00PM 43.8580 -79.2480 261° West 222 255 4,300 -1,200 Descending FlightAware
05:01PM 43.8560 -79.2700 263° West 223 257 4,000 -1,080 Descending FlightAware
05:01PM 43.8530 -79.2970 261° West 222 255 3,700 -1,080 Descending FlightAware
05:01PM 43.8510 -79.3250 264° West 221 254 3,300 -1,020 Descending FlightAware
05:01PM 43.8490 -79.3390 259° West 214 246 3,200 -840 Descending FlightAware
05:02PM 43.8460 -79.3460 239° Southwest 208 239 3,100 -600 Descending FlightAware
05:02PM 43.8370 -79.3610 230° Southwest 197 227 3,000 -240 Descending FlightAware
05:02PM 43.8310 -79.3690 224° Southwest 192 221 3,000  Level FlightAware
05:02PM 43.8160 -79.3920 228° Southwest 194 223 3,000  Level FlightAware
05:03PM 43.8040 -79.4100 227° Southwest 196 226 3,000  Level FlightAware
05:03PM 43.7910 -79.4290 227° Southwest 194 223 3,000  Level FlightAware
05:03PM 43.7780 -79.4480 227° Southwest 174 200 3,000  Level FlightAware
05:04PM 43.7710 -79.4580 226° Southwest 171 197 3,000  Level FlightAware
05:04PM 43.7600 -79.4740 226° Southwest 174 200 3,000 -540 Level FlightAware
05:04PM 43.7460 -79.4940 226° Southwest 168 193 2,600 -900 Descending FlightAware
05:05PM 43.7410 -79.5010 225° Southwest 160 184 2,500 -840 Descending FlightAware
05:05PM 43.7310 -79.5160 227° Southwest 154 177 2,200 -900 Descending FlightAware
05:05PM 43.7240 -79.5260 226° Southwest 147 169 2,000 -840 Descending FlightAware
05:06PM 43.7100 -79.5460 226° Southwest 138 159 1,600 -840 Descending FlightAware
05:06PM 43.7010 -79.5590 226° Southwest 140 161 1,300 -780 Descending FlightAware
05:06PM 43.6920 -79.5720 226° Southwest 142 163 1,100 -600 Descending FlightAware
05:07PM 43.6840 -79.5850 230° Southwest 147 169 900 -480 Descending FlightAware
05:07PM 43.6690 -79.6050 224° Southwest 147 169 700 -360 Descending FlightAware